Flight Track Log - Related Links

Times and Time Zones

All times are in EDT time to prevent confusion due to time zone crossing. See the AWE1578 flight status page for this flight to view local times or setup timezone preferences in your user account.

Time Position Orientation Groundspeed Altitude Reporting Facility
EDT Latitude Longitude Course Direction KTS MPH feet Rate Location/Type
Mon 03:04:00 PM 35.1990 -81.2167 North  Level FlightAware Approximate
Mon 03:04:32 PM 35.0930 -81.0710 52° Northeast 277 319 7,700  Level FlightAware ADS-B
Mon 03:05:00 PM 35.3022 -81.1370 52° Northeast  Level FlightAware Approximate
Mon 03:05:12 PM 35.1000 -81.1300 278° West 291 335 8,100  Level FlightAware ADS-B
Mon 03:05:42 PM 35.1170 -81.1760 294° West 292 336 8,100 873 Level FlightAware ADS-B
Mon 03:06:07 PM 35.1350 -81.2080 305° West 305 351 8,900 2,400 Climbing FlightAware ADS-B
Mon 03:06:22 PM 35.1580 -81.2200 337° Northwest 308 354 9,700 1,333 Climbing FlightAware ADS-B
Mon 03:06:52 PM 35.1940 -81.2300 347° North 308 354 9,900 2,700 Climbing FlightAware ADS-B
Mon 03:07:02 PM 35.2120 -81.2010 53° Northeast 311 358 11,500 2,618 Climbing FlightAware ADS-B
Mon 03:07:47 PM 35.2720 -81.1640 27° Northeast 327 376 12,300 1,694 Climbing FlightAware ADS-B
Mon 03:08:27 PM 35.3350 -81.1250 27° Northeast 365 420 13,900 2,259 Climbing FlightAware ADS-B
Mon 03:09:12 PM 35.4050 -81.0810 27° Northeast 377 434 15,500 2,188 Climbing FlightAware ADS-B
Mon 03:09:52 PM 35.4680 -81.0420 27° Northeast 379 436 17,000 2,100 Climbing FlightAware ADS-B
Mon 03:10:32 PM 35.5300 -81.0030 27° Northeast 386 444 18,300 1,624 Climbing FlightAware ADS-B
Mon 03:11:17 PM 35.6020 -80.9570 27° Northeast 400 460 19,300 1,482 Climbing FlightAware ADS-B
Mon 03:11:57 PM 35.6630 -80.9120 31° Northeast 401 461 20,400 1,667 Climbing FlightAware ADS-B
Mon 03:12:47 PM 35.7310 -80.8320 44° Northeast 397 457 21,800 1,642 Climbing FlightAware ADS-B
Mon 03:13:32 PM 35.7820 -80.7580 50° Northeast 391 450 23,000 1,690 Climbing FlightAware ADS-B
Mon 03:13:58 PM 35.8172 -80.7122 45° Northeast 387 445 23,800  Climbing Atlanta Center
Mon 03:14:17 PM 35.8290 -80.6920 49° Northeast 391 450 23,000 -814 Descending FlightAware ADS-B
Mon 03:14:57 PM 35.8690 -80.6350 49° Northeast 391 450 23,000 2,927 Level FlightAware ADS-B
Mon 03:14:58 PM 35.8872 -80.6094 50° Northeast 392 451 25,000  Climbing Atlanta Center
Mon 03:15:37 PM 35.9090 -80.5780 49° Northeast 391 450 23,000 1,400 Descending FlightAware ADS-B
Mon 03:15:58 PM 35.9594 -80.5036 50° Northeast 392 451 26,400  Climbing Atlanta Center
Mon 03:16:17 PM 35.9500 -80.5210 48° Northeast 391 450 23,000 1,000 Descending FlightAware ADS-B
Mon 03:16:58 PM 36.0775 -80.4728 12° North 390 449 27,400  Climbing Atlanta Center
Mon 03:17:07 PM 36.0000 -80.4490 49° Northeast 391 450 23,000 707 Descending FlightAware ADS-B
Mon 03:18:00 PM 36.1560 -80.3727 46° Northeast  Level Estimated
Mon 03:19:00 PM 36.1722 -80.2346 45° Northeast  Level Estimated
Mon 03:24:28 PM 36.9679 -81.1223 46° Northeast 501 577 32,700  Level FlightAware ADS-B
Mon 03:27:00 PM 37.1222 -80.8351 56° Northeast  Level Estimated
Mon 03:27:15 PM 37.3112 -81.2287 56° Northeast 470 541 34,600  Level FlightAware ADS-B
Mon 03:28:17 PM 37.4449 -81.1989 10° North 473 544 34,900 140 Climbing FlightAware ADS-B
Mon 03:29:55 PM 37.6616 -81.1464 11° North 35,000 55 Climbing FlightAware ADS-B
Mon 03:30:06 PM 37.6845 -81.1341 23° Northeast 469 540 35,000  Level FlightAware ADS-B
Mon 03:30:18 PM 37.7064 -81.1180 30° Northeast 460 529 35,000  Level FlightAware ADS-B
Mon 03:30:46 PM 37.7483 -81.0700 42° Northeast 438 504 35,000  Level FlightAware ADS-B
Mon 03:31:05 PM 37.7696 -81.0304 56° Northeast 424 488 35,000  Level FlightAware ADS-B
Mon 03:31:15 PM 37.7784 -81.0072 64° Northeast 416 479 35,000 250 Level FlightAware ADS-B
Mon 03:31:29 PM 37.7871 -80.9753 71° East 408 470 35,100 207 Climbing FlightAware ADS-B
Mon 03:31:44 PM 37.7922 -80.9430 79° East 401 461 35,100  Level FlightAware ADS-B
Mon 03:32:17 PM 37.7970 -80.8710 85° East 396 456 35,100 -82 Level FlightAware ADS-B
Mon 03:32:57 PM 37.8030 -80.7860 85° East 396 456 35,000 -100 Descending FlightAware ADS-B
Mon 03:33:17 PM 37.8060 -80.7390 85° East 397 457 35,000  Level FlightAware ADS-B
Mon 03:34:02 PM 37.8130 -80.6430 85° East 397 457 35,000  Level FlightAware ADS-B
Mon 03:34:42 PM 37.8180 -80.5640 85° East 397 457 35,000  Level FlightAware ADS-B
Mon 03:35:32 PM 37.8250 -80.4660 85° East 397 457 35,000  Level FlightAware ADS-B
Mon 03:36:12 PM 37.8310 -80.3870 84° East 397 457 35,000  Level FlightAware ADS-B
Mon 03:36:52 PM 37.8360 -80.3080 85° East 397 457 35,000  Level FlightAware ADS-B
Mon 03:37:47 PM 37.8470 -80.1010 86° East 419 482 35,000  Level FlightAware ADS-B
Mon 03:38:27 PM 37.8520 -80.0180 86° East 419 482 35,000  Level FlightAware ADS-B
Mon 03:39:07 PM 37.8580 -79.9340 85° East 419 482 35,000  Level FlightAware ADS-B
Mon 03:39:57 PM 37.8650 -79.8300 85° East 419 482 35,000  Level FlightAware ADS-B
Mon 03:40:37 PM 37.8710 -79.7470 85° East 419 482 35,000  Level FlightAware ADS-B
Mon 03:41:17 PM 37.8770 -79.6640 85° East 419 482 35,000  Level FlightAware ADS-B
Mon 03:41:57 PM 37.8830 -79.5810 85° East 419 482 35,000 -500 Level FlightAware ADS-B
Mon 03:44:57 PM 37.9140 -78.9970 86° East 33,000 -600 Descending FlightAware ADS-B
Mon 03:45:17 PM 37.9190 -78.9540 82° East 450 518 33,000  Level FlightAware ADS-B
Mon 03:45:57 PM 37.9310 -78.8610 81° East 450 518 33,000  Level FlightAware ADS-B
Mon 03:46:37 PM 37.9440 -78.7550 81° East 448 516 33,000  Level FlightAware ADS-B
Mon 03:47:22 PM 37.9580 -78.6380 81° East 448 516 33,000  Level FlightAware ADS-B
Mon 03:48:02 PM 37.9680 -78.5440 82° East 446 513 33,000  Level FlightAware ADS-B
Mon 03:48:47 PM 37.9840 -78.4080 81° East 444 511 33,000 -200 Level FlightAware ADS-B
Mon 03:49:32 PM 37.9970 -78.3020 81° East 444 511 32,700 -706 Descending FlightAware ADS-B
Mon 03:50:12 PM 38.0180 -78.1850 77° East 452 520 32,000 -1,050 Descending FlightAware ADS-B
Mon 03:50:52 PM 38.0530 -78.0800 67° East 460 529 31,300 -706 Descending FlightAware ADS-B
Mon 03:51:37 PM 38.1020 -77.9780 59° Northeast 472 543 31,000 -212 Descending FlightAware ADS-B
Mon 03:52:17 PM 38.1470 -77.8860 58° Northeast 472 543 31,000 -480 Level FlightAware ADS-B
Mon 03:52:52 PM 38.1890 -77.8020 58° Northeast 453 521 30,400 -1,108 Descending FlightAware ADS-B
Mon 03:53:22 PM 38.2238 -77.7304 58° Northeast 434 499 29,800 -1,000 Descending FlightAware ADS-B
Mon 03:54:04 PM 38.2457 -77.6345 74° East 417 480 29,200 -914 Descending FlightAware ADS-B
Mon 03:55:07 PM 38.2710 -77.5000 76° East 375 432 28,200 -932 Descending FlightAware ADS-B
Mon 03:55:47 PM 38.2880 -77.4150 76° East 374 430 27,600 -1,082 Descending FlightAware ADS-B
Mon 03:56:08 PM 38.3052 -77.3674 65° Northeast 384 442 27,100 -1,099 Descending FlightAware ADS-B
Mon 03:56:58 PM 38.3616 -77.2795 51° Northeast 383 441 26,300 -940 Descending FlightAware ADS-B
Mon 03:57:31 PM 38.3985 -77.2227 50° Northeast 379 436 25,800 -1,015 Descending FlightAware ADS-B
Mon 03:58:03 PM 38.4349 -77.1666 50° Northeast 379 436 25,200 -1,043 Descending FlightAware ADS-B
Mon 03:58:40 PM 38.4755 -77.1038 50° Northeast 379 436 24,600 -957 Descending FlightAware ADS-B
Mon 03:59:12 PM 38.5120 -77.0474 50° Northeast 378 435 24,100 -545 Descending FlightAware ADS-B
Mon 03:59:46 PM 38.5498 -76.9888 50° Northeast 375 432 24,000 -86 Descending FlightAware ADS-B
Mon 04:00:22 PM 38.5886 -76.9285 51° Northeast 372 428 24,000  Level FlightAware ADS-B
Mon 04:01:01 PM 38.6313 -76.8621 51° Northeast 371 427 24,000 -83 Level FlightAware ADS-B
Mon 04:01:34 PM 38.6668 -76.8066 51° Northeast 373 429 23,900 -690 Descending FlightAware ADS-B
Mon 04:02:28 PM 38.7157 -76.6983 60° Northeast 397 457 23,000 -938 Descending FlightAware ADS-B
Mon 04:02:38 PM 38.7205 -76.6756 75° East 399 459 22,900 -955 Descending FlightAware ADS-B
Mon 04:03:12 PM 38.7370 -76.5980 75° East 400 460 22,300 -1,015 Descending FlightAware ADS-B
Mon 04:03:43 PM 38.7514 -76.5286 75° East 393 452 21,800 -1,043 Descending FlightAware ADS-B
Mon 04:04:21 PM 38.7689 -76.4446 75° East 386 444 21,100 -1,478 Descending FlightAware ADS-B
Mon 04:04:52 PM 38.7833 -76.3750 75° East 383 441 20,100 -1,969 Descending FlightAware ADS-B
Mon 04:05:25 PM 38.7981 -76.3039 75° East 376 433 19,000 -1,969 Descending FlightAware ADS-B
Mon 04:05:56 PM 38.8117 -76.2377 75° East 372 428 18,000 -1,869 Descending FlightAware ADS-B
Mon 04:06:26 PM 38.8247 -76.1742 75° East 368 423 17,100 -1,869 Descending FlightAware ADS-B
Mon 04:06:57 PM 38.8379 -76.1101 75° East 363 418 16,100 -1,869 Descending FlightAware ADS-B
Mon 04:07:27 PM 38.8505 -76.0479 75° East 358 412 15,200 -1,130 Descending FlightAware ADS-B
Mon 04:08:06 PM 38.8661 -75.9706 75° East 351 404 14,800 -338 Descending FlightAware ADS-B
Mon 04:08:38 PM 38.8789 -75.9072 75° East 347 399 14,800  Level FlightAware ADS-B
Mon 04:09:10 PM 38.8951 -75.8441 72° East 352 405 14,800 -143 Level FlightAware ADS-B
Mon 04:09:20 PM 38.9054 -75.8273 52° Northeast 353 406 14,700 -632 Descending FlightAware ADS-B
Mon 04:09:29 PM 38.9173 -75.8149 39° Northeast 353 406 14,600 -667 Descending FlightAware ADS-B
Mon 04:09:38 PM 38.9300 -75.8068 26° Northeast 349 402 14,500 -923 Descending FlightAware ADS-B
Mon 04:10:08 PM 38.9752 -75.7875 18° North 337 388 14,000 -985 Descending FlightAware ADS-B
Mon 04:10:45 PM 39.0291 -75.7641 19° North 331 381 13,400 -957 Descending FlightAware ADS-B
Mon 04:11:17 PM 39.0750 -75.7443 19° North 329 379 12,900 -806 Descending FlightAware ADS-B
Mon 04:11:52 PM 39.1100 -75.7290 19° North 305 351 12,500 -977 Descending FlightAware ADS-B
Mon 04:12:00 PM 39.1349 -75.7185 18° North 307 353 12,200 -1,674 Descending FlightAware ADS-B
Mon 04:12:35 PM 39.1819 -75.6982 19° North 305 351 11,300 -1,543 Descending FlightAware ADS-B
Mon 04:13:10 PM 39.2285 -75.6780 19° North 302 348 10,400 -1,279 Descending FlightAware ADS-B
Mon 04:13:36 PM 39.2631 -75.6633 18° North 301 346 10,000 -732 Descending FlightAware ADS-B
Mon 04:13:51 PM 39.2837 -75.6544 18° North 302 348 9,900 -480 Descending FlightAware ADS-B
Mon 04:14:01 PM 39.2972 -75.6495 16° North 303 349 9,800 -462 Descending FlightAware ADS-B
Mon 04:14:04 PM 39.3017 -75.6488 North 304 350 9,800  Level FlightAware ADS-B
Mon 04:14:10 PM 39.3088 -75.6486 North 306 352 9,800  Level FlightAware ADS-B
Mon 04:14:14 PM 39.3145 -75.6494 354° North 307 353 9,800  Level FlightAware ADS-B
Mon 04:14:32 PM 39.3397 -75.6560 349° North 308 354 9,800 -176 Level FlightAware ADS-B
Mon 04:14:48 PM 39.3622 -75.6626 347° North 307 353 9,700 -774 Descending FlightAware ADS-B
Mon 04:15:03 PM 39.3830 -75.6688 347° North 305 351 9,400 -1,548 Descending FlightAware ADS-B
Mon 04:15:19 PM 39.4056 -75.6752 348° North 305 351 8,900 -1,800 Descending FlightAware ADS-B
Mon 04:15:23 PM 39.4109 -75.6761 353° North 304 350 8,800 -1,500 Descending FlightAware ADS-B
Mon 04:15:31 PM 39.4223 -75.6763 359° North 302 348 8,600 -1,440 Descending FlightAware ADS-B
Mon 04:15:48 PM 39.4461 -75.6738 North 298 343 8,200 -1,455 Descending FlightAware ADS-B
Mon 04:16:04 PM 39.4673 -75.6711 North 294 338 7,800 -1,548 Descending FlightAware ADS-B
Mon 04:16:19 PM 39.4885 -75.6683 North 296 341 7,400 -1,548 Descending FlightAware ADS-B
Mon 04:16:35 PM 39.5095 -75.6654 North 294 338 7,000 -1,313 Descending FlightAware ADS-B
Mon 04:16:51 PM 39.5311 -75.6624 North 290 334 6,700 -1,313 Descending FlightAware ADS-B
Mon 04:17:07 PM 39.5520 -75.6593 North 289 333 6,300 -1,412 Descending FlightAware ADS-B
Mon 04:17:25 PM 39.5764 -75.6558 North 286 329 5,900 -882 Descending FlightAware ADS-B
Mon 04:17:41 PM 39.5968 -75.6530 North 287 330 5,800 -194 Descending FlightAware ADS-B
Mon 04:17:56 PM 39.6169 -75.6504 North 286 329 5,800  Level FlightAware ADS-B
Mon 04:18:16 PM 39.6427 -75.6458 North 272 313 5,800  Level FlightAware ADS-B
Mon 04:18:22 PM 39.6502 -75.6421 21° North 268 308 5,800  Level FlightAware ADS-B
Mon 04:18:26 PM 39.6541 -75.6394 28° Northeast 265 305 5,800 -600 Level FlightAware ADS-B
Mon 04:18:32 PM 39.6597 -75.6340 37° Northeast 260 299 5,700 -667 Descending FlightAware ADS-B
Mon 04:18:35 PM 39.6624 -75.6308 42° Northeast 257 296 5,700 -500 Level FlightAware ADS-B
Mon 04:18:44 PM 39.6698 -75.6207 46° Northeast 253 291 5,600 -1,200 Descending FlightAware ADS-B
Mon 04:19:00 PM 39.6825 -75.6030 47° Northeast 250 288 5,200 -1,500 Descending FlightAware ADS-B
Mon 04:19:16 PM 39.6952 -75.5857 46° Northeast 253 291 4,800 -1,455 Descending FlightAware ADS-B
Mon 04:19:33 PM 39.7088 -75.5671 46° Northeast 252 290 4,400 -1,273 Descending FlightAware ADS-B
Mon 04:19:49 PM 39.7215 -75.5497 46° Northeast 250 288 4,100 -968 Descending FlightAware ADS-B
Mon 04:20:04 PM 39.7337 -75.5329 47° Northeast 245 282 3,900 -600 Descending FlightAware ADS-B
Mon 04:20:19 PM 39.7450 -75.5174 47° Northeast 233 268 3,800 -600 Descending FlightAware ADS-B
Mon 04:20:34 PM 39.7559 -75.5022 47° Northeast 219 252 3,600 -774 Descending FlightAware ADS-B
Mon 04:20:50 PM 39.7662 -75.4879 47° Northeast 205 236 3,400 -750 Descending FlightAware ADS-B
Mon 04:21:06 PM 39.7761 -75.4737 48° Northeast 187 215 3,200 -783 Descending FlightAware ADS-B
Mon 04:21:13 PM 39.7800 -75.4680 48° Northeast 181 208 3,100 -750 Descending FlightAware ADS-B
Mon 04:21:22 PM 39.7850 -75.4609 47° Northeast 175 201 3,000 -1,200 Descending FlightAware ADS-B
Mon 04:21:38 PM 39.7938 -75.4491 46° Northeast 170 196 2,600 -1,355 Descending FlightAware ADS-B
Mon 04:21:53 PM 39.8021 -75.4379 46° Northeast 169 194 2,300 -1,125 Descending FlightAware ADS-B
Mon 04:22:10 PM 39.8112 -75.4254 47° Northeast 168 193 2,000 -909 Descending FlightAware ADS-B
Mon 04:22:26 PM 39.8192 -75.4142 47° Northeast 159 183 1,800 -375 Descending FlightAware ADS-B
Mon 04:22:42 PM 39.8275 -75.4025 47° Northeast 156 180 1,800  Level FlightAware ADS-B
Mon 04:22:53 PM 39.8327 -75.3951 48° Northeast 148 170 1,800  Level FlightAware ADS-B
Mon 04:23:01 PM 39.8357 -75.3893 56° Northeast 143 165 1,800 -375 Level FlightAware ADS-B
Mon 04:23:09 PM 39.8380 -75.3837 62° Northeast 140 161 1,700 -545 Descending FlightAware ADS-B
Mon 04:23:12 PM 39.8388 -75.3814 66° East 139 160 1,700 -857 Level FlightAware ADS-B
Mon 04:23:16 PM 39.8397 -75.3783 69° East 138 159 1,600 -1,200 Descending FlightAware ADS-B
Mon 04:23:27 PM 39.8417 -75.3696 73° East 135 155 1,400 -1,154 Descending FlightAware ADS-B
Mon 04:23:42 PM 39.8443 -75.3574 74° East 135 155 1,100 -938 Descending FlightAware ADS-B
Mon 04:23:59 PM 39.8470 -75.3440 75° East 137 158 900 -727 Descending FlightAware ADS-B
Mon 04:24:15 PM 39.8496 -75.3312 75° East 137 158 700 -727 Descending FlightAware ADS-B
Mon 04:24:32 PM 39.8524 -75.3177 75° East 135 155 500 -667 Descending FlightAware ADS-B
Mon 04:24:51 PM 39.8553 -75.3029 76° East 134 154 300 -632 Descending FlightAware ADS-B

Login

Don't have an account? Register now (free) for customized features, flight alerts, and more!